Time,TemperatureF,DewpointF,PressureIn,WindDirection,WindDirectionDegrees,WindSpeedMPH,WindSpeedGustMPH,Humidity,HourlyPrecipIn,Conditions,Clouds,dailyrainin,SoftwareType,DateUTC
2013-06-14 00:58:00,66.2,64.1,29.69,NW,317,0.0,0.0,93,0.00,,-RA,0.08,VWS V14.01,2013-06-14 04:58:00,
2013-06-14 00:59:00,51.9,49.9,29.54,ESE,107,0.0,0.0,93,1.14,,-RA,0.05,VWS V14.01,2013-06-14 04:59:00,
2013-06-14 01:04:00,51.9,49.9,29.55,ESE,105,1.0,2.0,93,0.00,,-RA,0.05,VWS V14.01,2013-06-14 05:04:00,
2013-06-14 01:09:00,51.9,49.9,29.55,ENE,74,1.0,4.0,93,0.01,,-RA,0.06,VWS V14.01,2013-06-14 05:09:00,
2013-06-14 01:14:00,51.8,49.8,29.55,ENE,60,0.0,4.0,93,0.01,,-RA,0.06,VWS V14.01,2013-06-14 05:14:00,
2013-06-14 01:19:00,51.8,49.8,29.55,WNW,287,0.0,1.0,93,0.02,,-RA,0.07,VWS V14.01,2013-06-14 05:19:00,
2013-06-14 01:24:00,51.7,49.8,29.55,ENE,62,0.0,1.0,93,0.03,,-RA,0.08,VWS V14.01,2013-06-14 05:24:00,
2013-06-14 01:29:00,51.6,49.7,29.56,North,352,1.0,4.0,93,0.04,,-RA,0.09,VWS V14.01,2013-06-14 05:29:00,
2013-06-14 01:34:00,51.6,49.7,29.56,ENE,63,0.0,4.0,93,0.04,,-RA,0.09,VWS V14.01,2013-06-14 05:34:00,
2013-06-14 01:39:00,51.5,49.5,29.56,North,352,1.0,4.0,93,0.05,,-RA,0.10,VWS V14.01,2013-06-14 05:39:00,
2013-06-14 01:44:00,51.4,49.5,29.56,ENE,60,2.0,7.0,93,0.05,,-RA,0.10,VWS V14.01,2013-06-14 05:44:00,
2013-06-14 01:49:00,51.4,49.5,29.56,ENE,75,0.0,4.0,93,0.06,,-RA,0.11,VWS V14.01,2013-06-14 05:49:00,
2013-06-14 01:54:00,51.3,49.3,29.56,ENE,76,1.0,4.0,93,0.06,,-RA,0.11,VWS V14.01,2013-06-14 05:54:00,
2013-06-14 01:59:00,51.2,49.2,29.57,ENE,66,0.0,4.0,93,0.06,,-RA,0.11,VWS V14.01,2013-06-14 05:59:00,
2013-06-14 02:04:00,51.2,49.2,29.57,ENE,70,1.0,6.0,93,0.07,,-RA,0.12,VWS V14.01,2013-06-14 06:04:00,
2013-06-14 02:09:00,51.2,49.2,29.57,ESE,114,0.0,8.0,93,0.07,,-RA,0.12,VWS V14.01,2013-06-14 06:09:00,
2013-06-14 02:14:00,51.3,49.3,29.57,ENE,72,1.0,8.0,93,0.08,,-RA,0.13,VWS V14.01,2013-06-14 06:14:00,
2013-06-14 02:19:00,51.3,49.3,29.57,ENE,67,4.0,4.0,93,0.07,,-RA,0.13,VWS V14.01,2013-06-14 06:19:00,
2013-06-14 02:24:00,51.2,49.2,29.57,NE,45,1.0,6.0,93,0.08,,-RA,0.14,VWS V14.01,2013-06-14 06:24:00,
2013-06-14 02:29:00,51.2,49.2,29.58,East,86,1.0,6.0,93,0.08,,-RA,0.14,VWS V14.01,2013-06-14 06:29:00,
2013-06-14 02:34:00,51.2,49.2,29.57,NNE,29,0.0,3.0,93,0.06,,-RA,0.15,VWS V14.01,2013-06-14 06:34:00,
2013-06-14 02:39:00,51.2,49.2,29.57,ESE,105,1.0,5.0,93,0.06,,-RA,0.15,VWS V14.01,2013-06-14 06:39:00,
2013-06-14 02:44:00,51.2,49.2,29.58,East,99,1.0,6.0,93,0.07,,-RA,0.16,VWS V14.01,2013-06-14 06:44:00,
2013-06-14 02:49:00,51.2,49.2,29.58,East,79,0.0,6.0,93,0.06,,-RA,0.16,VWS V14.01,2013-06-14 06:49:00,
2013-06-14 02:54:00,51.3,49.3,29.58,ENE,74,0.0,6.0,93,0.08,,-RA,0.18,VWS V14.01,2013-06-14 06:54:00,
2013-06-14 02:59:00,51.3,49.3,29.59,ESE,112,1.0,6.0,93,0.10,,-RA,0.20,VWS V14.01,2013-06-14 06:59:00,
2013-06-14 03:04:00,51.2,49.2,29.60,NNE,32,0.0,3.0,93,0.09,,-RA,0.21,VWS V14.01,2013-06-14 07:04:00,
2013-06-14 03:09:00,51.1,49.2,29.60,NNE,33,3.0,4.0,93,0.10,,-RA,0.22,VWS V14.01,2013-06-14 07:09:00,
2013-06-14 03:14:00,51.0,49.0,29.60,ESE,115,1.0,4.0,93,0.10,,-RA,0.22,VWS V14.01,2013-06-14 07:14:00,
2013-06-14 03:19:00,51.0,49.0,29.59,NE,54,0.0,1.0,93,0.10,,-RA,0.23,VWS V14.01,2013-06-14 07:19:00,
2013-06-14 03:24:00,50.8,48.8,29.59,NW,323,5.0,5.0,93,0.10,,-RA,0.23,VWS V14.01,2013-06-14 07:24:00,
2013-06-14 03:29:00,50.7,48.8,29.60,NNE,29,3.0,7.0,93,0.11,,-RA,0.24,VWS V14.01,2013-06-14 07:29:00,
2013-06-14 03:34:00,50.5,48.6,29.61,WSW,256,1.0,5.0,93,0.10,,-RA,0.24,VWS V14.01,2013-06-14 07:34:00,
2013-06-14 03:39:00,50.4,48.5,29.60,ENE,67,2.0,6.0,93,0.10,,-RA,0.24,VWS V14.01,2013-06-14 07:39:00,
2013-06-14 03:44:00,50.2,48.3,29.61,East,96,2.0,11.0,93,0.10,,-RA,0.24,VWS V14.01,2013-06-14 07:44:00,
2013-06-14 03:49:00,50.1,48.2,29.61,East,99,6.0,6.0,93,0.08,,-RA,0.24,VWS V14.01,2013-06-14 07:49:00,
2013-06-14 03:54:00,50.1,48.2,29.61,ENE,77,2.0,6.0,93,0.08,,-RA,0.24,VWS V14.01,2013-06-14 07:54:00,
2013-06-14 03:59:00,50.0,48.1,29.61,NNE,29,1.0,6.0,93,0.08,,-RA,0.24,VWS V14.01,2013-06-14 07:59:00,
2013-06-14 04:04:00,50.0,48.1,29.62,NE,44,0.0,6.0,93,0.04,,OVC032,0.24,VWS V14.01,2013-06-14 08:04:00,
2013-06-14 04:09:00,49.9,48.0,29.62,East,101,0.0,6.0,93,0.04,,OVC032,0.24,VWS V14.01,2013-06-14 08:09:00,
2013-06-14 04:14:00,49.9,48.0,29.62,East,86,0.0,6.0,93,0.04,,OVC032,0.24,VWS V14.01,2013-06-14 08:14:00,
2013-06-14 04:19:00,49.9,48.0,29.62,NE,44,0.0,2.0,93,0.02,,OVC032,0.24,VWS V14.01,2013-06-14 08:19:00,
2013-06-14 04:24:00,49.9,48.0,29.62,East,92,0.0,3.0,93,0.02,,OVC032,0.24,VWS V14.01,2013-06-14 08:24:00,
2013-06-14 04:29:00,49.9,48.0,29.62,NE,49,0.0,3.0,93,0.02,,OVC032,0.24,VWS V14.01,2013-06-14 08:29:00,
2013-06-14 04:34:00,49.9,48.0,29.62,East,90,0.0,2.0,93,0.00,,OVC032,0.24,VWS V14.01,2013-06-14 08:34:00,
2013-06-14 04:39:00,49.9,48.0,29.63,NE,50,0.0,5.0,93,0.00,,OVC032,0.24,VWS V14.01,2013-06-14 08:39:00,
2013-06-14 04:44:00,49.9,48.0,29.63,NNW,330,0.0,5.0,93,0.00,,OVC032,0.24,VWS V14.01,2013-06-14 08:44:00,
2013-06-14 04:49:00,49.9,48.0,29.64,East,101,1.0,2.0,93,0.00,,OVC032,0.24,VWS V14.01,2013-06-14 08:49:00,
2013-06-14 04:54:00,49.9,48.0,29.64,ESE,117,5.0,7.0,93,0.00,,OVC032,0.24,VWS V14.01,2013-06-14 08:54:00,
2013-06-14 04:59:00,50.0,48.1,29.64,NNE,23,1.0,7.0,93,0.00,,OVC032,0.24,VWS V14.01,2013-06-14 08:59:00,
2013-06-14 05:04:00,49.9,48.0,29.64,North,11,0.0,3.0,93,0.00,,OVC046,0.24,VWS V14.01,2013-06-14 09:04:00,
2013-06-14 05:09:00,49.9,48.0,29.64,East,94,2.0,5.0,93,0.00,,OVC046,0.24,VWS V14.01,2013-06-14 09:09:00,
2013-06-14 05:14:00,49.9,48.0,29.63,ENE,70,1.0,6.0,93,0.00,,OVC046,0.24,VWS V14.01,2013-06-14 09:14:00,
2013-06-14 05:19:00,49.9,48.0,29.63,NNE,21,0.0,3.0,93,0.00,,OVC046,0.24,VWS V14.01,2013-06-14 09:19:00,
2013-06-14 05:24:00,49.9,48.0,29.64,NE,44,0.0,6.0,93,0.00,,OVC046,0.24,VWS V14.01,2013-06-14 09:24:00,
2013-06-14 05:29:00,49.9,48.0,29.65,SE,131,1.0,8.0,93,0.00,,OVC046,0.24,VWS V14.01,2013-06-14 09:29:00,
2013-06-14 05:34:00,49.8,47.9,29.64,East,90,4.0,4.0,93,0.00,,OVC046,0.24,VWS V14.01,2013-06-14 09:34:00,
2013-06-14 05:39:00,49.7,47.8,29.64,WNW,296,0.0,4.0,93,0.00,,OVC046,0.24,VWS V14.01,2013-06-14 09:39:00,
2013-06-14 05:44:00,49.6,47.7,29.65,South,172,2.0,5.0,93,0.00,,OVC046,0.24,VWS V14.01,2013-06-14 09:44:00,
2013-06-14 05:49:00,49.5,47.6,29.66,NNE,29,0.0,10.0,93,0.00,,OVC046,0.24,VWS V14.01,2013-06-14 09:49:00,
2013-06-14 05:54:00,49.6,47.7,29.66,ESE,112,1.0,10.0,93,0.00,,OVC046,0.24,VWS V14.01,2013-06-14 09:54:00,
2013-06-14 05:59:00,49.5,47.6,29.66,East,86,4.0,10.0,93,0.00,,OVC046,0.24,VWS V14.01,2013-06-14 09:59:00,
2013-06-14 06:04:00,49.6,47.7,29.66,NE,51,0.0,4.0,93,0.00,,OVC070,0.24,VWS V14.01,2013-06-14 10:04:00,
2013-06-14 06:09:00,49.7,47.8,29.67,ENE,68,2.0,4.0,93,0.00,,OVC070,0.24,VWS V14.01,2013-06-14 10:09:00,
2013-06-14 06:14:00,49.7,47.8,29.67,ENE,60,1.0,6.0,93,0.00,,OVC070,0.24,VWS V14.01,2013-06-14 10:14:00,
2013-06-14 06:19:00,49.8,47.9,29.67,ENE,70,1.0,2.0,93,0.00,,OVC070,0.24,VWS V14.01,2013-06-14 10:19:00,
2013-06-14 06:24:00,49.9,48.0,29.68,ESE,105,0.0,2.0,93,0.00,,OVC070,0.24,VWS V14.01,2013-06-14 10:24:00,
2013-06-14 06:29:00,49.9,48.0,29.67,NW,305,0.0,3.0,93,0.00,,OVC070,0.24,VWS V14.01,2013-06-14 10:29:00,
2013-06-14 06:34:00,49.9,48.0,29.68,NNE,25,1.0,1.0,93,0.00,,OVC070,0.24,VWS V14.01,2013-06-14 10:34:00,
2013-06-14 06:39:00,49.9,48.0,29.68,ENE,75,1.0,2.0,93,0.00,,OVC070,0.24,VWS V14.01,2013-06-14 10:39:00,
2013-06-14 06:44:00,49.9,48.0,29.68,East,79,1.0,2.0,93,0.00,,OVC070,0.24,VWS V14.01,2013-06-14 10:44:00,
2013-06-14 06:49:00,50.0,48.1,29.68,ENE,60,0.0,3.0,93,0.00,,OVC070,0.24,VWS V14.01,2013-06-14 10:49:00,
2013-06-14 06:54:00,50.0,48.1,29.68,East,91,0.0,4.0,93,0.00,,OVC070,0.24,VWS V14.01,2013-06-14 10:54:00,
2013-06-14 06:59:00,50.2,48.3,29.68,East,82,0.0,4.0,93,0.00,,OVC070,0.24,VWS V14.01,2013-06-14 10:59:00,
2013-06-14 07:04:00,50.3,48.4,29.68,WSW,248,0.0,2.0,93,0.00,,OVC110,0.24,VWS V14.01,2013-06-14 11:04:00,
2013-06-14 07:09:00,50.5,48.6,29.69,ENE,65,0.0,4.0,93,0.00,,OVC110,0.24,VWS V14.01,2013-06-14 11:09:00,
2013-06-14 07:14:00,50.7,48.8,29.69,East,83,1.0,4.0,93,0.00,,OVC110,0.24,VWS V14.01,2013-06-14 11:14:00,
2013-06-14 07:19:00,51.0,49.0,29.69,NNE,33,1.0,6.0,93,0.00,,OVC110,0.24,VWS V14.01,2013-06-14 11:19:00,
2013-06-14 07:24:00,51.3,49.3,29.69,East,97,0.0,6.0,93,0.00,,OVC110,0.24,VWS V14.01,2013-06-14 11:24:00,
2013-06-14 07:29:00,51.6,49.7,29.69,ESE,113,1.0,6.0,93,0.00,,OVC110,0.24,VWS V14.01,2013-06-14 11:29:00,
2013-06-14 07:34:00,51.6,49.7,29.69,ENE,75,2.0,4.0,93,0.00,,OVC110,0.24,VWS V14.01,2013-06-14 11:34:00,
2013-06-14 07:39:00,51.7,49.8,29.70,WSW,250,1.0,4.0,93,0.00,,OVC110,0.24,VWS V14.01,2013-06-14 11:39:00,
2013-06-14 07:44:00,51.7,49.8,29.70,WNW,284,1.0,4.0,93,0.00,,OVC110,0.24,VWS V14.01,2013-06-14 11:44:00,
2013-06-14 07:49:00,51.6,49.7,29.69,NE,41,1.0,2.0,93,0.00,,OVC110,0.24,VWS V14.01,2013-06-14 11:49:00,
2013-06-14 07:54:00,51.5,49.5,29.70,SW,231,1.0,5.0,93,0.00,,OVC110,0.24,VWS V14.01,2013-06-14 11:54:00,
2013-06-14 07:59:00,51.5,49.3,29.70,ENE,71,0.0,5.0,92,0.00,,OVC110,0.24,VWS V14.01,2013-06-14 11:59:00,
2013-06-14 08:04:00,51.6,49.4,29.70,ENE,68,0.0,0.0,92,0.00,,OVC100,0.24,VWS V14.01,2013-06-14 12:04:00,
2013-06-14 08:09:00,51.6,49.4,29.71,SE,141,0.0,2.0,92,0.00,,OVC100,0.24,VWS V14.01,2013-06-14 12:09:00,
2013-06-14 08:14:00,51.8,49.8,29.71,East,82,0.0,2.0,93,0.00,,OVC100,0.24,VWS V14.01,2013-06-14 12:14:00,
2013-06-14 08:19:00,51.7,49.5,29.71,ESE,108,0.0,1.0,92,0.00,,OVC100,0.24,VWS V14.01,2013-06-14 12:19:00,
2013-06-14 08:24:00,51.8,49.5,29.72,SE,130,0.0,1.0,92,0.00,,OVC100,0.24,VWS V14.01,2013-06-14 12:24:00,
2013-06-14 08:29:00,51.9,49.7,29.72,NNE,27,0.0,2.0,92,0.00,,OVC100,0.24,VWS V14.01,2013-06-14 12:29:00,
2013-06-14 08:34:00,52.0,49.8,29.72,ENE,70,0.0,4.0,92,0.00,,OVC100,0.24,VWS V14.01,2013-06-14 12:34:00,
2013-06-14 08:39:00,52.1,49.8,29.73,ENE,70,0.0,4.0,92,0.00,,OVC100,0.24,VWS V14.01,2013-06-14 12:39:00,
2013-06-14 08:44:00,52.2,50.0,29.73,NE,34,0.0,4.0,92,0.00,,OVC100,0.24,VWS V14.01,2013-06-14 12:44:00,
2013-06-14 08:49:00,52.3,50.0,29.73,NW,309,0.0,2.0,92,0.00,,OVC100,0.24,VWS V14.01,2013-06-14 12:49:00,
2013-06-14 08:54:00,52.4,50.2,29.73,North,6,0.0,2.0,92,0.00,,OVC100,0.24,VWS V14.01,2013-06-14 12:54:00,
2013-06-14 08:59:00,52.5,50.2,29.74,ENE,77,0.0,4.0,92,0.00,,OVC100,0.24,VWS V14.01,2013-06-14 12:59:00,
2013-06-14 09:04:00,52.6,50.3,29.74,West,261,0.0,1.0,92,0.00,,OVC100,0.24,VWS V14.01,2013-06-14 13:04:00,
2013-06-14 09:09:00,52.6,50.3,29.74,NNW,341,0.0,4.0,92,0.00,,OVC100,0.24,VWS V14.01,2013-06-14 13:09:00,
2013-06-14 09:14:00,52.7,50.5,29.74,NE,55,0.0,4.0,92,0.00,,OVC100,0.24,VWS V14.01,2013-06-14 13:14:00,
2013-06-14 09:19:00,52.8,50.5,29.74,NW,321,0.0,3.0,92,0.00,,OVC100,0.24,VWS V14.01,2013-06-14 13:19:00,
2013-06-14 09:24:00,53.0,50.7,29.74,North,11,0.0,3.0,92,0.00,,OVC100,0.24,VWS V14.01,2013-06-14 13:24:00,
2013-06-14 09:29:00,53.2,50.9,29.75,WSW,256,1.0,3.0,92,0.00,,OVC100,0.24,VWS V14.01,2013-06-14 13:29:00,
2013-06-14 09:34:00,53.3,51.0,29.75,NW,325,0.0,2.0,92,0.00,,OVC100,0.24,VWS V14.01,2013-06-14 13:34:00,
2013-06-14 09:39:00,53.5,51.2,29.75,WNW,285,0.0,2.0,92,0.00,,OVC100,0.24,VWS V14.01,2013-06-14 13:39:00,
2013-06-14 09:44:00,53.7,51.4,29.75,ENE,70,1.0,2.0,92,0.00,,OVC100,0.24,VWS V14.01,2013-06-14 13:44:00,
2013-06-14 09:49:00,53.9,51.6,29.76,WSW,253,0.0,4.0,92,0.00,,OVC100,0.24,VWS V14.01,2013-06-14 13:49:00,
2013-06-14 09:54:00,54.0,51.7,29.76,NNW,342,0.0,4.0,92,0.00,,OVC100,0.24,VWS V14.01,2013-06-14 13:54:00,
2013-06-14 09:59:00,54.1,51.8,29.76,North,352,2.0,4.0,92,0.00,,OVC100,0.24,VWS V14.01,2013-06-14 13:59:00,
2013-06-14 10:04:00,54.3,52.0,29.76,North,4,0.0,3.0,92,0.00,,OVC039,0.24,VWS V14.01,2013-06-14 14:04:00,
2013-06-14 10:09:00,54.5,52.2,29.76,NW,321,2.0,3.0,92,0.00,,OVC039,0.24,VWS V14.01,2013-06-14 14:09:00,
2013-06-14 10:14:00,54.8,52.5,29.76,NNW,346,1.0,4.0,92,0.00,,OVC039,0.24,VWS V14.01,2013-06-14 14:14:00,
2013-06-14 10:19:00,55.1,52.5,29.77,North,352,0.0,2.0,91,0.00,,OVC039,0.24,VWS V14.01,2013-06-14 14:19:00,
2013-06-14 10:24:00,55.4,52.8,29.77,North,355,0.0,2.0,91,0.00,,OVC039,0.24,VWS V14.01,2013-06-14 14:24:00,
2013-06-14 10:29:00,55.7,53.1,29.77,NNE,13,0.0,2.0,91,0.00,,OVC039,0.24,VWS V14.01,2013-06-14 14:29:00,
2013-06-14 10:34:00,56.0,53.1,29.77,West,276,0.0,3.0,90,0.00,,OVC039,0.24,VWS V14.01,2013-06-14 14:34:00,
2013-06-14 10:39:00,56.4,53.2,29.77,WNW,294,1.0,3.0,89,0.00,,OVC039,0.24,VWS V14.01,2013-06-14 14:39:00,
2013-06-14 10:44:00,56.7,52.9,29.77,NNE,13,0.0,5.0,87,0.00,,OVC039,0.24,VWS V14.01,2013-06-14 14:44:00,
2013-06-14 10:49:00,57.4,53.6,29.78,NNE,18,0.0,3.0,87,0.00,,OVC039,0.24,VWS V14.01,2013-06-14 14:49:00,
2013-06-14 10:54:00,58.5,54.0,29.78,NNW,328,6.0,6.0,85,0.00,,OVC039,0.24,VWS V14.01,2013-06-14 14:54:00,
2013-06-14 10:59:00,59.2,52.7,29.78,NNE,30,0.0,6.0,79,0.00,,OVC039,0.24,VWS V14.01,2013-06-14 14:59:00,
2013-06-14 11:04:00,60.4,55.9,29.78,ENE,76,0.0,0.0,85,0.00,,BKN050,0.24,VWS V14.01,2013-06-14 15:04:00,
2013-06-14 11:09:00,61.4,54.8,29.78,East,86,0.0,3.0,79,0.00,,BKN050,0.24,VWS V14.01,2013-06-14 15:09:00,
2013-06-14 11:14:00,62.5,54.8,29.78,North,352,0.0,3.0,76,0.00,,BKN050,0.24,VWS V14.01,2013-06-14 15:14:00,
2013-06-14 11:19:00,63.4,54.6,29.78,NNE,23,0.0,2.0,73,0.00,,BKN050,0.24,VWS V14.01,2013-06-14 15:19:00,
2013-06-14 11:24:00,63.5,54.3,29.78,ESE,104,0.0,2.0,72,0.00,,BKN050,0.24,VWS V14.01,2013-06-14 15:24:00,
2013-06-14 11:29:00,63.2,53.7,29.78,North,4,0.0,5.0,71,0.00,,BKN050,0.24,VWS V14.01,2013-06-14 15:29:00,
2013-06-14 11:34:00,63.1,54.7,29.78,West,278,3.0,3.0,74,0.00,,BKN050,0.24,VWS V14.01,2013-06-14 15:34:00,
2013-06-14 11:39:00,63.5,55.1,29.78,SW,233,0.0,5.0,74,0.00,,BKN050,0.24,VWS V14.01,2013-06-14 15:39:00,
2013-06-14 11:44:00,64.0,54.8,29.77,WNW,285,5.0,6.0,72,0.00,,BKN050,0.24,VWS V14.01,2013-06-14 15:44:00,
2013-06-14 11:49:00,64.4,54.8,29.78,SSW,194,0.0,4.0,71,0.00,,BKN050,0.24,VWS V14.01,2013-06-14 15:49:00,
2013-06-14 11:54:00,64.8,55.2,29.77,NE,51,1.0,4.0,71,0.00,,BKN050,0.24,VWS V14.01,2013-06-14 15:54:00,
2013-06-14 11:59:00,65.1,55.1,29.77,WNW,285,3.0,5.0,70,0.00,,BKN050,0.24,VWS V14.01,2013-06-14 15:59:00,
2013-06-14 12:04:00,64.9,55.3,29.77,NW,309,0.0,4.0,71,0.00,,BKN043,0.24,VWS V14.01,2013-06-14 16:04:00,
2013-06-14 12:09:00,65.6,56.7,29.77,ESE,108,0.0,6.0,73,0.00,,BKN043,0.24,VWS V14.01,2013-06-14 16:09:00,
2013-06-14 12:14:00,65.8,55.4,29.77,WNW,284,1.0,8.0,69,0.00,,BKN043,0.24,VWS V14.01,2013-06-14 16:14:00,
2013-06-14 12:19:00,66.1,56.4,29.77,ESE,117,0.0,6.0,71,0.00,,BKN043,0.24,VWS V14.01,2013-06-14 16:19:00,
2013-06-14 12:23:00,66.7,56.6,29.77,West,262,1.0,6.0,70,0.00,,BKN043,0.24,VWS V14.01,2013-06-14 16:23:00,
2013-06-14 12:28:00,67.1,57.4,29.77,West,259,3.0,6.0,71,0.00,,BKN043,0.24,VWS V14.01,2013-06-14 16:28:00,
2013-06-14 12:33:00,67.6,58.7,29.77,NE,39,2.0,7.0,73,0.00,,BKN043,0.24,VWS V14.01,2013-06-14 16:33:00,
2013-06-14 12:38:00,67.4,56.9,29.76,East,98,1.0,8.0,69,0.00,,BKN043,0.24,VWS V14.01,2013-06-14 16:38:00,
2013-06-14 12:43:00,67.9,58.2,29.76,NW,309,4.0,8.0,71,0.00,,BKN043,0.24,VWS V14.01,2013-06-14 16:43:00,
2013-06-14 12:48:00,67.7,57.6,29.76,ENE,75,1.0,6.0,70,0.00,,BKN043,0.24,VWS V14.01,2013-06-14 16:48:00,
2013-06-14 12:53:00,67.8,58.1,29.76,ESE,114,0.0,6.0,71,0.00,,BKN043,0.24,VWS V14.01,2013-06-14 16:53:00,
2013-06-14 12:58:00,68.4,57.4,29.76,NNE,19,5.0,8.0,68,0.00,,BKN043,0.24,VWS V14.01,2013-06-14 16:58:00,
2013-06-14 13:03:00,68.9,57.5,29.76,WSW,253,1.0,7.0,67,0.00,,SCT075,0.24,VWS V14.01,2013-06-14 17:03:00,
2013-06-14 13:08:00,69.2,57.8,29.76,NE,44,1.0,9.0,67,0.00,,SCT075,0.24,VWS V14.01,2013-06-14 17:08:00,
2013-06-14 13:13:00,69.4,58.0,29.76,West,281,2.0,9.0,67,0.00,,SCT075,0.24,VWS V14.01,2013-06-14 17:13:00,
2013-06-14 13:18:00,69.7,57.4,29.76,WNW,292,3.0,6.0,65,0.00,,SCT075,0.24,VWS V14.01,2013-06-14 17:18:00,
2013-06-14 13:23:00,69.6,58.2,29.76,WSW,252,0.0,6.0,67,0.00,,SCT075,0.24,VWS V14.01,2013-06-14 17:23:00,
2013-06-14 13:28:00,70.0,58.1,29.76,East,88,1.0,6.0,66,0.00,,SCT075,0.24,VWS V14.01,2013-06-14 17:28:00,
2013-06-14 13:33:00,70.1,58.7,29.75,ENE,63,2.0,4.0,67,0.00,,SCT075,0.24,VWS V14.01,2013-06-14 17:33:00,
2013-06-14 13:38:00,70.8,60.5,29.75,ESE,114,1.0,4.0,70,0.00,,SCT075,0.24,VWS V14.01,2013-06-14 17:38:00,
2013-06-14 13:43:00,70.9,58.1,29.75,East,82,1.0,4.0,64,0.00,,SCT075,0.24,VWS V14.01,2013-06-14 17:43:00,
2013-06-14 13:48:00,71.4,57.7,29.75,NNW,331,3.0,10.0,62,0.00,,SCT075,0.24,VWS V14.01,2013-06-14 17:48:00,
2013-06-14 13:53:00,71.5,59.6,29.75,West,260,1.0,10.0,66,0.00,,SCT075,0.24,VWS V14.01,2013-06-14 17:53:00,
2013-06-14 13:58:00,71.7,58.5,29.75,WNW,298,2.0,10.0,63,0.00,,SCT075,0.24,VWS V14.01,2013-06-14 17:58:00,
2013-06-14 14:03:00,71.8,58.5,29.75,SE,129,1.0,4.0,63,0.00,,SCT095,0.24,VWS V14.01,2013-06-14 18:03:00,
2013-06-14 14:08:00,71.8,57.6,29.75,WNW,288,1.0,10.0,61,0.00,,SCT095,0.24,VWS V14.01,2013-06-14 18:08:00,
2013-06-14 14:13:00,72.4,58.2,29.75,SE,139,0.0,10.0,61,0.00,,SCT095,0.24,VWS V14.01,2013-06-14 18:13:00,
2013-06-14 14:18:00,72.9,56.3,29.75,West,262,1.0,7.0,56,0.00,,SCT095,0.24,VWS V14.01,2013-06-14 18:18:00,
2013-06-14 14:23:00,73.0,55.9,29.75,WNW,291,5.0,8.0,55,0.00,,SCT095,0.24,VWS V14.01,2013-06-14 18:23:00,
2013-06-14 14:28:00,72.4,56.3,29.75,East,93,2.0,9.0,57,0.00,,SCT095,0.24,VWS V14.01,2013-06-14 18:28:00,
2013-06-14 14:33:00,71.6,56.5,29.75,East,89,0.0,3.0,59,0.00,,SCT095,0.24,VWS V14.01,2013-06-14 18:33:00,
2013-06-14 14:38:00,71.5,57.4,29.75,NNE,13,1.0,5.0,61,0.00,,SCT095,0.24,VWS V14.01,2013-06-14 18:38:00,
2013-06-14 14:43:00,71.7,57.1,29.75,ENE,75,0.0,5.0,60,0.00,,SCT095,0.24,VWS V14.01,2013-06-14 18:43:00,
2013-06-14 14:48:00,71.7,57.5,29.75,NNE,27,0.0,0.0,61,0.00,,SCT095,0.24,VWS V14.01,2013-06-14 18:48:00,
2013-06-14 14:53:00,71.9,59.1,29.75,NNW,331,1.0,1.0,64,0.00,,SCT095,0.24,VWS V14.01,2013-06-14 18:53:00,
2013-06-14 14:58:00,71.7,57.1,29.76,East,79,3.0,6.0,60,0.00,,SCT095,0.24,VWS V14.01,2013-06-14 18:58:00,
2013-06-14 15:03:00,70.2,58.3,29.77,West,281,1.0,5.0,66,0.01,,BKN120,0.25,VWS V14.01,2013-06-14 19:03:00,
2013-06-14 15:08:00,67.6,57.5,29.76,ENE,70,1.0,6.0,70,0.02,,BKN120,0.26,VWS V14.01,2013-06-14 19:08:00,
2013-06-14 15:13:00,65.7,57.9,29.76,East,81,0.0,6.0,76,0.02,,BKN120,0.26,VWS V14.01,2013-06-14 19:13:00,
2013-06-14 15:18:00,65.1,58.4,29.76,East,83,0.0,0.0,79,0.02,,BKN120,0.26,VWS V14.01,2013-06-14 19:18:00,
2013-06-14 15:23:00,65.2,59.6,29.75,East,89,0.0,0.0,82,0.02,,BKN120,0.26,VWS V14.01,2013-06-14 19:23:00,
2013-06-14 15:28:00,65.6,60.0,29.75,East,94,0.0,0.0,82,0.02,,BKN120,0.26,VWS V14.01,2013-06-14 19:28:00,
2013-06-14 15:33:00,66.3,60.3,29.75,East,94,0.0,0.0,81,0.02,,BKN120,0.26,VWS V14.01,2013-06-14 19:33:00,
2013-06-14 15:38:00,67.7,61.7,29.75,West,278,0.0,0.0,81,0.02,,BKN120,0.26,VWS V14.01,2013-06-14 19:38:00,
2013-06-14 15:43:00,68.7,60.8,29.75,North,349,3.0,3.0,76,0.02,,BKN120,0.26,VWS V14.01,2013-06-14 19:43:00,
2013-06-14 15:48:00,69.1,62.0,29.75,NNE,15,0.0,0.0,78,0.02,,BKN120,0.26,VWS V14.01,2013-06-14 19:48:00,
2013-06-14 15:53:00,69.5,62.3,29.75,West,274,2.0,2.0,78,0.02,,BKN120,0.26,VWS V14.01,2013-06-14 19:53:00,
2013-06-14 15:58:00,69.6,61.3,29.75,NW,315,1.0,3.0,75,0.02,,BKN120,0.26,VWS V14.01,2013-06-14 19:58:00,
2013-06-14 16:03:00,70.0,60.6,29.75,WNW,301,2.0,3.0,72,0.02,, +RA,0.26,VWS V14.01,2013-06-14 20:03:00,
2013-06-14 16:08:00,70.1,60.7,29.75,ESE,121,0.0,3.0,72,0.02,,-RA,0.26,VWS V14.01,2013-06-14 20:08:00,
2013-06-14 16:13:00,70.6,60.3,29.75,WSW,246,1.0,4.0,70,0.02,,-RA,0.26,VWS V14.01,2013-06-14 20:13:00,
2013-06-14 16:18:00,70.7,61.2,29.75,North,358,1.0,1.0,72,0.00,,-RA,0.26,VWS V14.01,2013-06-14 20:18:00,
2013-06-14 16:23:00,70.6,60.8,29.76,West,279,1.0,2.0,71,0.00,,-RA,0.26,VWS V14.01,2013-06-14 20:23:00,
2013-06-14 16:28:00,70.3,60.5,29.76,WSW,244,0.0,2.0,71,0.00,,-RA,0.26,VWS V14.01,2013-06-14 20:28:00,
2013-06-14 16:33:00,69.5,61.2,29.78,ENE,59,2.0,4.0,75,0.00,,-RA,0.26,VWS V14.01,2013-06-14 20:33:00,
2013-06-14 16:38:00,67.0,58.5,29.78,East,86,8.0,13.0,74,0.01,,-RA,0.27,VWS V14.01,2013-06-14 20:38:00,
2013-06-14 16:43:00,64.2,57.9,29.78,ESE,113,0.0,13.0,80,0.03,,-RA,0.29,VWS V14.01,2013-06-14 20:43:00,
2013-06-14 16:48:00,62.5,57.9,29.78,North,9,0.0,3.0,85,0.06,,-RA,0.32,VWS V14.01,2013-06-14 20:48:00,
2013-06-14 16:53:00,61.3,57.1,29.79,North,352,1.0,3.0,86,0.08,,-RA,0.34,VWS V14.01,2013-06-14 20:53:00,
2013-06-14 16:58:00,60.4,56.8,29.78,NNE,13,0.0,4.0,88,0.09,,,0.35,VWS V14.01,2013-06-14 20:58:00,
2013-06-14 17:03:00,59.8,56.6,29.79,NW,309,0.0,1.0,89,0.10,,,0.36,VWS V14.01,2013-06-14 21:03:00,
2013-06-14 17:08:00,59.4,56.5,29.78,WNW,284,1.0,1.0,90,0.10,, +RA,0.36,VWS V14.01,2013-06-14 21:08:00,
2013-06-14 17:13:00,59.2,56.6,29.78,SSW,197,0.0,1.0,91,0.11,, +RA,0.37,VWS V14.01,2013-06-14 21:13:00,
2013-06-14 17:18:00,59.3,57.0,29.78,SSW,198,0.0,0.0,92,0.11,,RA,0.37,VWS V14.01,2013-06-14 21:18:00,
2013-06-14 17:23:00,59.3,57.0,29.78,South,190,0.0,0.0,92,0.11,,,0.37,VWS V14.01,2013-06-14 21:23:00,
2013-06-14 17:28:00,59.6,57.3,29.78,South,190,0.0,0.0,92,0.11,,,0.37,VWS V14.01,2013-06-14 21:28:00,
2013-06-14 17:33:00,59.8,57.5,29.81,NE,56,2.0,3.0,92,0.12,,,0.38,VWS V14.01,2013-06-14 21:33:00,
2013-06-14 17:38:00,59.3,57.0,29.82,ENE,71,1.0,3.0,92,0.18,,,0.44,VWS V14.01,2013-06-14 21:38:00,
2013-06-14 17:43:00,58.9,56.3,29.81,ENE,72,0.0,3.0,91,0.20,,,0.46,VWS V14.01,2013-06-14 21:43:00,
2013-06-14 17:48:00,58.6,56.3,29.81,NE,39,0.0,0.0,92,0.18,,BKN090,0.47,VWS V14.01,2013-06-14 21:48:00,
2013-06-14 17:53:00,58.5,56.2,29.81,NE,53,0.0,0.0,92,0.20,,BKN090,0.49,VWS V14.01,2013-06-14 21:53:00,
2013-06-14 17:58:00,58.4,56.1,29.80,NE,52,0.0,1.0,92,0.22,,BKN090,0.51,VWS V14.01,2013-06-14 21:58:00,
2013-06-14 18:03:00,58.4,56.1,29.81,NE,52,0.0,1.0,92,0.16,,BKN100,0.51,VWS V14.01,2013-06-14 22:03:00,
2013-06-14 18:08:00,58.5,56.2,29.81,NE,47,0.0,1.0,92,0.16,,BKN100,0.51,VWS V14.01,2013-06-14 22:08:00,
2013-06-14 18:13:00,58.6,56.3,29.82,NE,46,0.0,1.0,92,0.16,,BKN100,0.51,VWS V14.01,2013-06-14 22:13:00,
2013-06-14 18:18:00,58.9,56.6,29.81,NE,46,0.0,0.0,92,0.14,,BKN100,0.51,VWS V14.01,2013-06-14 22:18:00,
2013-06-14 18:23:00,59.0,56.7,29.81,West,259,1.0,2.0,92,0.14,,BKN100,0.51,VWS V14.01,2013-06-14 22:23:00,
2013-06-14 18:28:00,59.2,56.9,29.81,WSW,257,0.0,2.0,92,0.14,,BKN100,0.51,VWS V14.01,2013-06-14 22:28:00,
2013-06-14 18:33:00,59.3,57.0,29.81,West,264,0.0,0.0,92,0.14,,BKN100,0.51,VWS V14.01,2013-06-14 22:33:00,
2013-06-14 18:38:00,59.4,57.1,29.81,West,264,0.0,0.0,92,0.14,,BKN100,0.51,VWS V14.01,2013-06-14 22:38:00,
2013-06-14 18:43:00,59.4,57.1,29.82,West,264,0.0,1.0,92,0.14,,BKN100,0.51,VWS V14.01,2013-06-14 22:43:00,
2013-06-14 18:48:00,59.3,57.0,29.82,West,266,0.0,0.0,92,0.04,,BKN100,0.51,VWS V14.01,2013-06-14 22:48:00,
2013-06-14 18:53:00,59.2,56.9,29.82,North,349,0.0,0.0,92,0.04,,BKN100,0.51,VWS V14.01,2013-06-14 22:53:00,
2013-06-14 18:58:00,59.2,56.9,29.82,North,349,0.0,0.0,92,0.04,,BKN100,0.51,VWS V14.01,2013-06-14 22:58:00,
2013-06-14 19:03:00,59.2,56.9,29.82,North,349,0.0,0.0,92,0.00,,RA,0.51,VWS V14.01,2013-06-14 23:03:00,
2013-06-14 19:08:00,59.2,56.9,29.82,North,349,0.0,0.0,92,0.00,,RA,0.51,VWS V14.01,2013-06-14 23:08:00,
2013-06-14 19:13:00,59.2,56.9,29.83,North,349,0.0,0.0,92,0.00,,RA,0.51,VWS V14.01,2013-06-14 23:13:00,
2013-06-14 19:18:00,59.0,56.7,29.83,NW,309,0.0,0.0,92,0.00,,RA,0.51,VWS V14.01,2013-06-14 23:18:00,
2013-06-14 19:23:00,59.0,56.7,29.83,NW,309,0.0,0.0,92,0.01,,RA,0.52,VWS V14.01,2013-06-14 23:23:00,
2013-06-14 19:28:00,59.0,56.7,29.83,NW,310,0.0,1.0,92,0.01,,RA,0.52,VWS V14.01,2013-06-14 23:28:00,
2013-06-14 19:33:00,59.0,56.7,29.83,WSW,253,0.0,0.0,92,0.01,,RA,0.52,VWS V14.01,2013-06-14 23:33:00,
2013-06-14 19:38:00,59.1,56.8,29.83,WSW,252,0.0,0.0,92,0.01,,RA,0.52,VWS V14.01,2013-06-14 23:38:00,
2013-06-14 19:43:00,59.1,56.8,29.83,WSW,253,0.0,1.0,92,0.01,,RA,0.52,VWS V14.01,2013-06-14 23:43:00,
2013-06-14 19:48:00,59.1,56.8,29.82,WSW,252,0.0,0.0,92,0.01,,RA,0.52,VWS V14.01,2013-06-14 23:48:00,
2013-06-14 19:53:00,59.1,56.8,29.82,WSW,252,0.0,0.0,92,0.01,,RA,0.52,VWS V14.01,2013-06-14 23:53:00,
2013-06-14 19:58:00,59.0,56.7,29.82,West,267,0.0,0.0,92,0.01,,RA,0.52,VWS V14.01,2013-06-14 23:58:00,
2013-06-14 20:03:00,58.9,56.6,29.82,West,267,0.0,0.0,92,0.01,,BKN090,0.52,VWS V14.01,2013-06-15 00:03:00,
2013-06-14 20:08:00,58.6,56.3,29.82,West,266,0.0,0.0,92,0.01,,BKN090,0.52,VWS V14.01,2013-06-15 00:08:00,
2013-06-14 20:13:00,58.4,56.1,29.82,West,266,0.0,0.0,92,0.01,,BKN090,0.52,VWS V14.01,2013-06-15 00:13:00,
2013-06-14 20:18:00,58.2,55.9,29.82,West,266,0.0,0.0,92,0.01,,BKN090,0.52,VWS V14.01,2013-06-15 00:18:00,
2013-06-14 20:23:00,58.0,55.7,29.82,West,266,0.0,0.0,92,0.01,,BKN090,0.52,VWS V14.01,2013-06-15 00:23:00,
2013-06-14 20:28:00,57.8,55.5,29.82,West,266,0.0,0.0,92,0.01,,BKN090,0.52,VWS V14.01,2013-06-15 00:28:00,
2013-06-14 20:33:00,57.6,55.3,29.83,West,267,0.0,0.0,92,0.00,,BKN090,0.52,VWS V14.01,2013-06-15 00:33:00,
2013-06-14 20:38:00,57.6,55.3,29.83,West,267,0.0,0.0,92,0.00,,BKN090,0.52,VWS V14.01,2013-06-15 00:38:00,
2013-06-14 20:43:00,57.4,55.1,29.83,West,267,0.0,0.0,92,0.00,,BKN090,0.52,VWS V14.01,2013-06-15 00:43:00,
2013-06-14 20:48:00,57.2,54.9,29.83,West,267,0.0,0.0,92,0.00,,BKN090,0.52,VWS V14.01,2013-06-15 00:48:00,
2013-06-14 20:53:00,57.1,54.8,29.83,West,266,0.0,0.0,92,0.00,,BKN090,0.52,VWS V14.01,2013-06-15 00:53:00,
2013-06-14 20:58:00,56.9,54.6,29.84,West,266,0.0,0.0,92,0.00,,BKN090,0.52,VWS V14.01,2013-06-15 00:58:00,
2013-06-14 21:03:00,56.7,54.4,29.84,West,266,0.0,0.0,92,0.00,,FEW080,0.52,VWS V14.01,2013-06-15 01:03:00,
2013-06-14 21:08:00,56.6,54.3,29.84,West,267,0.0,0.0,92,0.00,,FEW080,0.52,VWS V14.01,2013-06-15 01:08:00,
2013-06-14 21:13:00,56.6,54.3,29.85,West,267,0.0,0.0,92,0.00,,FEW080,0.52,VWS V14.01,2013-06-15 01:13:00,
2013-06-14 21:18:00,56.4,54.1,29.85,West,267,0.0,0.0,92,0.00,,FEW080,0.52,VWS V14.01,2013-06-15 01:18:00,
2013-06-14 21:23:00,56.3,54.0,29.85,West,266,0.0,0.0,92,0.00,,FEW080,0.52,VWS V14.01,2013-06-15 01:23:00,
2013-06-14 21:28:00,56.3,54.0,29.85,NNW,334,0.0,0.0,92,0.00,,FEW080,0.52,VWS V14.01,2013-06-15 01:28:00,
2013-06-14 21:33:00,56.3,54.0,29.85,NW,309,0.0,0.0,92,0.00,,FEW080,0.52,VWS V14.01,2013-06-15 01:33:00,
2013-06-14 21:38:00,56.2,53.9,29.85,NW,309,0.0,0.0,92,0.00,,FEW080,0.52,VWS V14.01,2013-06-15 01:38:00,
2013-06-14 21:43:00,56.3,54.3,29.86,NW,309,0.0,0.0,93,0.00,,FEW080,0.52,VWS V14.01,2013-06-15 01:43:00,
2013-06-14 21:48:00,56.4,54.4,29.86,NW,312,0.0,0.0,93,0.00,,FEW080,0.52,VWS V14.01,2013-06-15 01:48:00,
2013-06-14 21:53:00,56.4,54.4,29.86,NW,311,0.0,0.0,93,0.00,,FEW080,0.52,VWS V14.01,2013-06-15 01:53:00,
2013-06-14 21:58:00,56.4,54.4,29.87,NW,314,0.0,0.0,93,0.00,,FEW080,0.52,VWS V14.01,2013-06-15 01:58:00,
2013-06-14 22:03:00,56.4,54.4,29.87,NW,314,0.0,0.0,93,0.00,,BKN110,0.52,VWS V14.01,2013-06-15 02:03:00,
2013-06-14 22:08:00,56.5,54.5,29.87,NW,310,0.0,0.0,93,0.00,,BKN110,0.52,VWS V14.01,2013-06-15 02:08:00,
2013-06-14 22:13:00,56.5,54.5,29.87,NW,312,0.0,0.0,93,0.00,,BKN110,0.52,VWS V14.01,2013-06-15 02:13:00,
2013-06-14 22:18:00,56.5,54.5,29.87,NW,312,0.0,0.0,93,0.01,,BKN110,0.53,VWS V14.01,2013-06-15 02:18:00,
2013-06-14 22:23:00,56.3,54.3,29.88,NW,312,0.0,0.0,93,0.01,,BKN110,0.53,VWS V14.01,2013-06-15 02:23:00,
2013-06-14 22:28:00,56.1,54.1,29.88,NW,312,0.0,0.0,93,0.01,,BKN110,0.53,VWS V14.01,2013-06-15 02:28:00,
2013-06-14 22:33:00,56.1,54.1,29.88,NW,314,0.0,0.0,93,0.01,,BKN110,0.53,VWS V14.01,2013-06-15 02:33:00,
2013-06-14 22:38:00,55.9,53.9,29.88,NW,314,0.0,0.0,93,0.01,,BKN110,0.53,VWS V14.01,2013-06-15 02:38:00,
2013-06-14 22:43:00,55.9,53.9,29.88,NW,310,0.0,0.0,93,0.01,,BKN110,0.53,VWS V14.01,2013-06-15 02:43:00,
2013-06-14 22:48:00,55.7,53.7,29.88,NW,310,0.0,0.0,93,0.01,,BKN110,0.53,VWS V14.01,2013-06-15 02:48:00,
2013-06-14 22:53:00,55.5,53.5,29.87,NW,311,0.0,0.0,93,0.01,,BKN110,0.53,VWS V14.01,2013-06-15 02:53:00,
2013-06-14 22:58:00,55.4,53.4,29.87,NW,311,0.0,0.0,93,0.01,,BKN110,0.53,VWS V14.01,2013-06-15 02:58:00,
2013-06-14 23:03:00,55.4,53.4,29.88,NW,311,0.0,0.0,93,0.01,,CLR,0.53,VWS V14.01,2013-06-15 03:03:00,
2013-06-14 23:08:00,55.3,53.3,29.88,NW,311,0.0,0.0,93,0.01,,CLR,0.53,VWS V14.01,2013-06-15 03:08:00,
2013-06-14 23:13:00,55.1,53.1,29.88,NW,311,0.0,0.0,93,0.01,,CLR,0.53,VWS V14.01,2013-06-15 03:13:00,
2013-06-14 23:18:00,55.0,53.0,29.88,NW,311,0.0,0.0,93,0.00,,CLR,0.53,VWS V14.01,2013-06-15 03:18:00,
2013-06-14 23:23:00,54.9,52.9,29.88,NW,311,0.0,0.0,93,0.00,,CLR,0.53,VWS V14.01,2013-06-15 03:23:00,
2013-06-14 23:28:00,54.7,52.7,29.88,NW,310,0.0,0.0,93,0.00,,CLR,0.53,VWS V14.01,2013-06-15 03:28:00,
2013-06-14 23:33:00,54.7,52.7,29.88,NW,311,0.0,0.0,93,0.00,,CLR,0.53,VWS V14.01,2013-06-15 03:33:00,
2013-06-14 23:38:00,54.6,52.6,29.88,NW,311,0.0,0.0,93,0.00,,CLR,0.53,VWS V14.01,2013-06-15 03:38:00,
2013-06-14 23:43:00,54.5,52.5,29.88,NW,311,0.0,0.0,93,0.00,,CLR,0.53,VWS V14.01,2013-06-15 03:43:00,
2013-06-14 23:48:00,54.5,52.5,29.88,NW,311,0.0,0.0,93,0.00,,CLR,0.53,VWS V14.01,2013-06-15 03:48:00,
2013-06-14 23:53:00,54.5,52.5,29.89,NW,311,0.0,0.0,93,0.00,,CLR,0.53,VWS V14.01,2013-06-15 03:53:00,
2013-06-14 23:58:00,54.5,52.5,29.89,NW,311,0.0,0.0,93,0.00,,CLR,0.53,VWS V14.01,2013-06-15 03:58:00,